createdAt,value
2022-12-18T00:00:58.447Z,15.20
2022-12-18T00:03:29.873Z,13.93
2022-12-18T00:06:01.890Z,19.23
2022-12-18T00:08:33.367Z,17.73
2022-12-18T00:11:08.612Z,19.85
2022-12-18T00:13:41.368Z,19.50
2022-12-18T00:16:15.872Z,21.15
2022-12-18T00:18:47.091Z,21.20
2022-12-18T00:21:18.827Z,20.57
2022-12-18T00:23:51.515Z,20.00
2022-12-18T00:26:25.806Z,23.05
2022-12-18T00:28:58.966Z,22.07
2022-12-18T00:31:30.582Z,21.30
2022-12-18T00:34:02.166Z,21.50
2022-12-18T00:36:35.554Z,20.85
2022-12-18T00:39:08.118Z,19.32
2022-12-18T00:41:57.839Z,18.10
2022-12-18T00:44:29.141Z,19.40
2022-12-18T00:47:00.521Z,15.68
2022-12-18T00:49:31.830Z,14.53
2022-12-18T00:52:03.474Z,21.73
2022-12-18T00:54:34.756Z,20.82
2022-12-18T00:57:06.246Z,19.85
2022-12-18T00:59:37.390Z,18.92
2022-12-18T01:02:08.774Z,21.25
2022-12-18T01:04:40.329Z,22.80
2022-12-18T01:07:11.509Z,21.87
2022-12-18T01:09:43.143Z,21.75
2022-12-18T01:12:14.450Z,21.52
2022-12-18T01:14:45.656Z,21.48
2022-12-18T01:17:17.045Z,19.45
2022-12-18T01:19:48.325Z,21.07
2022-12-18T01:22:19.714Z,20.52
2022-12-18T01:24:50.904Z,21.23
2022-12-18T01:27:22.278Z,20.08
2022-12-18T01:29:54.742Z,23.22
2022-12-18T01:32:26.059Z,21.57
2022-12-18T01:34:57.346Z,19.85
2022-12-18T01:37:28.662Z,20.72
2022-12-18T01:40:00.150Z,20.95
2022-12-18T01:42:32.161Z,17.27
2022-12-18T01:45:07.036Z,18.52
2022-12-18T01:47:43.918Z,20.57
2022-12-18T01:50:19.958Z,18.15
2022-12-18T01:52:54.370Z,19.25
2022-12-18T01:55:28.954Z,18.77
2022-12-18T01:58:02.445Z,19.27
2022-12-18T02:00:34.003Z,19.52
2022-12-18T02:03:05.402Z,15.83
2022-12-18T02:05:43.172Z,17.23
2022-12-18T02:08:17.722Z,16.90
2022-12-18T02:10:54.870Z,20.40
2022-12-18T02:13:29.262Z,18.15
2022-12-18T02:16:03.923Z,15.88
2022-12-18T02:18:38.324Z,16.50
2022-12-18T02:21:14.797Z,16.85
2022-12-18T02:23:52.246Z,19.75
2022-12-18T02:26:26.496Z,15.90
2022-12-18T02:29:00.741Z,17.52
2022-12-18T02:31:35.072Z,18.75
2022-12-18T02:34:09.446Z,16.93
2022-12-18T02:36:44.608Z,19.32
2022-12-18T02:39:18.668Z,14.70
2022-12-18T02:41:51.359Z,17.27
2022-12-18T02:44:22.630Z,16.80
2022-12-18T02:46:55.651Z,16.02
2022-12-18T02:49:35.154Z,16.50
2022-12-18T02:52:11.727Z,13.90
2022-12-18T02:54:54.031Z,10.63
2022-12-18T02:57:29.276Z,16.05
2022-12-18T03:00:04.138Z,12.47
2022-12-18T03:02:40.437Z,12.47
2022-12-18T03:05:15.562Z,11.00
2022-12-18T03:07:50.925Z,12.70
2022-12-18T03:10:26.113Z,11.85
2022-12-18T03:13:01.148Z,10.40
2022-12-18T03:15:35.675Z,10.75
2022-12-18T03:18:10.563Z,12.13
2022-12-18T03:20:44.682Z,12.88
2022-12-18T03:23:18.648Z,13.90
2022-12-18T03:25:52.470Z,12.20
2022-12-18T03:28:25.263Z,13.20
2022-12-18T03:30:59.536Z,11.00
2022-12-18T03:33:33.950Z,12.25
2022-12-18T03:36:05.822Z,11.93
2022-12-18T03:38:37.323Z,14.20
2022-12-18T03:41:11.981Z,10.98
2022-12-18T03:43:47.355Z,13.58
2022-12-18T03:46:22.312Z,11.35
2022-12-18T03:48:57.635Z,14.68
2022-12-18T03:51:32.316Z,12.98
2022-12-18T03:54:06.437Z,14.15
2022-12-18T03:56:41.210Z,14.95
2022-12-18T03:59:14.855Z,17.65
2022-12-18T04:01:49.505Z,16.52
2022-12-18T04:04:22.456Z,18.52
2022-12-18T04:06:54.840Z,15.90
2022-12-18T04:09:27.125Z,15.32
2022-12-18T04:11:58.509Z,14.45
2022-12-18T04:14:29.714Z,16.70
2022-12-18T04:17:00.939Z,19.57
2022-12-18T04:19:32.141Z,15.43
2022-12-18T04:22:03.809Z,16.35
2022-12-18T04:24:35.221Z,17.70
2022-12-18T04:27:07.115Z,17.73
2022-12-18T04:29:38.330Z,18.10
2022-12-18T04:32:10.608Z,16.20
2022-12-18T04:34:42.761Z,19.23
2022-12-18T04:37:14.042Z,14.53
2022-12-18T04:39:45.420Z,14.95
2022-12-18T04:42:17.802Z,13.83
2022-12-18T04:44:49.145Z,16.02
2022-12-18T04:49:50.034Z,15.40
2022-12-18T04:52:27.105Z,12.23
2022-12-18T04:54:54.299Z,14.10
2022-12-18T04:57:25.617Z,11.40
2022-12-18T04:59:56.994Z,9.90
2022-12-18T05:02:28.339Z,13.78
2022-12-18T05:04:59.767Z,12.28
2022-12-18T05:07:31.260Z,9.18
2022-12-18T05:10:02.622Z,9.28
2022-12-18T05:12:34.882Z,11.08
2022-12-18T05:15:08.735Z,12.55
2022-12-18T05:17:39.890Z,11.10
2022-12-18T05:20:13.090Z,16.07
2022-12-18T05:22:44.283Z,16.60
2022-12-18T05:27:45.905Z,19.67
2022-12-18T05:30:17.606Z,18.32
2022-12-18T05:32:49.089Z,20.10
2022-12-18T05:35:20.717Z,20.08
2022-12-18T05:37:52.102Z,19.48
2022-12-18T05:40:23.373Z,16.67
2022-12-18T05:42:54.586Z,20.00
2022-12-18T05:45:26.044Z,18.75
2022-12-18T05:47:57.344Z,18.05
2022-12-18T05:50:28.736Z,18.42
2022-12-18T05:52:59.991Z,17.95
2022-12-18T05:55:31.356Z,19.17
2022-12-18T05:58:02.791Z,20.23
2022-12-18T06:00:36.859Z,18.73
2022-12-18T06:03:08.795Z,21.82
2022-12-18T06:05:42.262Z,20.48
2022-12-18T06:08:14.285Z,20.32
2022-12-18T06:10:47.112Z,16.85
2022-12-18T06:13:18.242Z,18.00
2022-12-18T06:15:49.663Z,20.43
2022-12-18T06:18:20.899Z,19.15
2022-12-18T06:20:58.948Z,20.45
2022-12-18T06:23:30.225Z,16.97
2022-12-18T06:26:06.815Z,20.23
2022-12-18T06:28:38.106Z,18.98
2022-12-18T06:31:10.594Z,20.12
2022-12-18T06:33:43.288Z,17.62
2022-12-18T06:36:16.907Z,14.98
2022-12-18T06:38:48.188Z,19.20
2022-12-18T06:41:21.695Z,16.05
2022-12-18T06:43:58.128Z,18.27
2022-12-18T06:46:25.924Z,17.42
2022-12-18T06:48:57.201Z,16.97
2022-12-18T06:51:29.263Z,18.02
2022-12-18T06:54:00.415Z,17.85
2022-12-18T06:56:32.127Z,15.95
2022-12-18T06:59:03.453Z,16.77
2022-12-18T07:01:34.879Z,15.98
2022-12-18T07:04:06.725Z,13.68
2022-12-18T07:06:38.019Z,14.78
2022-12-18T07:09:09.236Z,13.32
2022-12-18T07:11:40.589Z,14.07
2022-12-18T07:14:11.745Z,12.05
2022-12-18T07:16:43.172Z,14.75
2022-12-18T07:19:14.503Z,15.55
2022-12-18T07:21:46.135Z,14.10
2022-12-18T07:24:17.576Z,13.50
2022-12-18T07:26:49.383Z,14.25
2022-12-18T07:29:20.779Z,16.45
2022-12-18T07:31:52.194Z,17.35
2022-12-18T07:34:23.577Z,14.13
2022-12-18T07:36:55.080Z,14.78
2022-12-18T07:39:26.485Z,13.95
2022-12-18T07:44:45.441Z,15.00
2022-12-18T07:47:17.028Z,12.73
2022-12-18T07:49:48.630Z,11.45
2022-12-18T07:52:25.619Z,13.05
2022-12-18T07:54:52.966Z,12.13
2022-12-18T07:57:56.369Z,14.10
2022-12-18T07:59:57.211Z,12.60
2022-12-18T08:02:28.548Z,12.75
2022-12-18T08:05:00.146Z,16.17
2022-12-18T08:07:31.357Z,12.25
2022-12-18T08:10:03.592Z,12.03
2022-12-18T08:12:35.520Z,13.95
2022-12-18T08:15:10.847Z,12.45
2022-12-18T08:17:42.207Z,17.10
2022-12-18T08:20:15.894Z,18.85
2022-12-18T08:22:47.861Z,21.75
2022-12-18T08:25:19.414Z,18.75
2022-12-18T08:27:50.854Z,18.07
2022-12-18T08:30:22.067Z,19.45
2022-12-18T08:32:55.089Z,18.57
2022-12-18T08:35:26.393Z,24.18
2022-12-18T08:37:57.590Z,19.32
2022-12-18T08:40:28.714Z,19.12
2022-12-18T08:45:48.015Z,16.65
2022-12-18T08:48:22.144Z,17.48
2022-12-18T08:50:58.066Z,16.35
2022-12-18T08:53:34.152Z,23.35
2022-12-18T08:56:03.116Z,18.50
2022-12-18T08:58:34.304Z,20.02
2022-12-18T09:01:07.522Z,16.02
2022-12-18T09:03:40.065Z,17.25
2022-12-18T09:06:13.450Z,17.60
2022-12-18T09:08:45.171Z,16.02
2022-12-18T09:11:19.115Z,17.25
2022-12-18T09:13:50.548Z,16.80
2022-12-18T09:16:26.132Z,17.95
2022-12-18T09:18:57.863Z,19.40
2022-12-18T09:21:31.148Z,19.35
2022-12-18T09:24:03.642Z,19.45
2022-12-18T09:26:35.025Z,17.67
2022-12-18T09:29:07.957Z,19.95
2022-12-18T09:31:40.256Z,18.75
2022-12-18T09:34:12.114Z,14.07
2022-12-18T09:36:43.629Z,16.32
2022-12-18T09:39:15.343Z,20.25
2022-12-18T09:41:50.933Z,22.55
2022-12-18T09:44:31.582Z,23.32
2022-12-18T09:47:13.660Z,21.85
2022-12-18T09:49:47.182Z,18.92
2022-12-18T09:52:23.631Z,18.87
2022-12-18T09:54:58.965Z,16.57
2022-12-18T09:57:33.211Z,15.75
2022-12-18T10:00:10.059Z,18.25
2022-12-18T10:02:41.600Z,19.25
2022-12-18T10:05:18.066Z,19.57
2022-12-18T10:07:57.863Z,18.40
2022-12-18T10:10:35.931Z,19.12
2022-12-18T10:13:14.137Z,17.82
2022-12-18T10:15:51.526Z,20.82
2022-12-18T10:18:29.522Z,17.48
2022-12-18T10:21:04.062Z,18.05
2022-12-18T10:23:41.358Z,20.57
2022-12-18T10:26:13.757Z,16.65
2022-12-18T10:28:46.920Z,18.80
2022-12-18T10:31:21.382Z,16.42
2022-12-18T10:33:56.245Z,17.07
2022-12-18T10:36:27.911Z,14.10
2022-12-18T10:39:07.635Z,13.98
2022-12-18T10:41:38.987Z,13.93
2022-12-18T10:44:21.128Z,14.78
2022-12-18T10:46:56.515Z,16.30
2022-12-18T10:49:30.768Z,16.35
2022-12-18T10:52:11.417Z,16.52
2022-12-18T10:54:44.460Z,16.80
2022-12-18T10:57:21.818Z,15.43
2022-12-18T10:59:55.626Z,16.35
2022-12-18T11:02:32.971Z,17.42
2022-12-18T11:05:12.588Z,18.50
2022-12-18T11:07:54.217Z,18.37
2022-12-18T11:10:29.579Z,17.62
2022-12-18T11:13:13.718Z,15.25
2022-12-18T11:15:45.623Z,16.20
2022-12-18T11:18:23.499Z,16.02
2022-12-18T11:20:58.959Z,15.80
2022-12-18T11:23:31.131Z,15.45
2022-12-18T11:26:14.205Z,15.20
2022-12-18T11:28:48.643Z,13.65
2022-12-18T11:31:25.204Z,17.15
2022-12-18T11:36:38.538Z,14.30
2022-12-18T11:39:15.270Z,14.98
2022-12-18T11:42:09.065Z,14.13
2022-12-18T11:44:47.186Z,14.73
2022-12-18T11:47:24.299Z,14.63
2022-12-18T11:49:57.949Z,15.23
2022-12-18T11:52:32.255Z,15.03
2022-12-18T11:55:08.952Z,14.30
2022-12-18T11:57:43.290Z,14.47
2022-12-18T12:00:18.315Z,13.05
2022-12-18T12:03:39.688Z,14.00
2022-12-18T12:06:15.601Z,12.98
2022-12-18T12:09:03.102Z,13.45
2022-12-18T12:11:39.254Z,14.13
2022-12-18T12:14:27.438Z,14.47
2022-12-18T12:17:01.921Z,13.53
2022-12-18T12:19:40.662Z,11.63
2022-12-18T12:22:16.435Z,14.80
2022-12-18T12:24:54.253Z,15.28
2022-12-18T12:27:30.378Z,12.65
2022-12-18T12:30:07.648Z,10.82
2022-12-18T12:32:48.535Z,12.20
2022-12-18T12:35:27.928Z,13.35
2022-12-18T12:38:04.945Z,15.08
2022-12-18T12:40:52.459Z,11.68
2022-12-18T12:43:24.529Z,13.80
2022-12-18T12:49:29.080Z,13.18
2022-12-18T12:52:03.747Z,11.43
2022-12-18T12:54:37.130Z,14.40
2022-12-18T12:57:11.679Z,13.40
2022-12-18T12:59:48.806Z,16.32
2022-12-18T13:02:24.479Z,14.13
2022-12-18T13:05:01.144Z,15.35
2022-12-18T13:07:36.176Z,13.45
2022-12-18T13:10:36.184Z,14.85
2022-12-18T13:13:10.724Z,16.12
2022-12-18T13:15:46.110Z,12.70
2022-12-18T13:18:23.390Z,14.45
2022-12-18T13:21:05.320Z,13.93
2022-12-18T13:23:37.862Z,14.20
2022-12-18T13:26:35.296Z,14.05
2022-12-18T13:29:07.252Z,13.53
2022-12-18T13:32:02.833Z,14.95
2022-12-18T13:34:34.346Z,14.70
2022-12-18T13:37:41.447Z,14.40
2022-12-18T13:41:07.706Z,13.32
2022-12-18T13:43:44.685Z,12.50
2022-12-18T13:46:25.283Z,14.58
2022-12-18T13:49:01.372Z,14.47
2022-12-18T13:51:36.404Z,14.05
2022-12-18T13:54:15.881Z,15.05
2022-12-18T13:56:49.824Z,15.40
2022-12-18T13:59:25.058Z,15.08
2022-12-18T14:01:59.665Z,14.18
2022-12-18T14:04:43.232Z,13.68
2022-12-18T14:07:17.049Z,12.15
2022-12-18T14:10:01.869Z,12.60
2022-12-18T14:12:48.151Z,11.68
2022-12-18T14:15:27.153Z,12.28
2022-12-18T14:18:01.164Z,13.13
2022-12-18T14:20:34.738Z,14.78
2022-12-18T14:23:06.018Z,12.58
2022-12-18T14:25:37.672Z,13.03
2022-12-18T14:28:15.865Z,12.45
2022-12-18T14:30:48.246Z,12.95
2022-12-18T14:33:22.547Z,14.00
2022-12-18T14:35:59.813Z,13.58
2022-12-18T14:38:33.333Z,12.93
2022-12-18T14:41:06.878Z,12.55
2022-12-18T14:43:40.871Z,11.83
2022-12-18T14:46:31.458Z,13.18
2022-12-18T14:49:05.641Z,12.78
2022-12-18T14:51:38.281Z,12.13
2022-12-18T14:54:16.626Z,15.08
2022-12-18T14:56:49.915Z,20.72
2022-12-18T14:59:24.630Z,22.90
2022-12-18T15:02:03.093Z,14.45
2022-12-18T15:04:38.339Z,16.62
2022-12-18T15:07:14.531Z,12.93
2022-12-18T15:09:48.203Z,15.75
2022-12-18T15:12:32.608Z,17.25
2022-12-18T15:15:04.684Z,18.30
2022-12-18T15:17:36.502Z,20.30
2022-12-18T15:20:13.422Z,17.90
2022-12-18T15:22:44.782Z,17.82
2022-12-18T15:25:27.497Z,21.27
2022-12-18T15:27:58.914Z,16.07
2022-12-18T15:30:30.503Z,16.35
2022-12-18T15:33:26.273Z,17.48
2022-12-18T15:36:01.968Z,17.92
2022-12-18T15:38:34.128Z,16.05
2022-12-18T15:41:14.472Z,19.17
2022-12-18T15:43:46.527Z,13.38
2022-12-18T15:46:20.253Z,19.62
2022-12-18T15:48:58.005Z,17.17
2022-12-18T15:51:29.663Z,19.75
2022-12-18T15:54:04.690Z,20.00
2022-12-18T15:56:53.816Z,18.20
2022-12-18T15:59:26.138Z,17.67
2022-12-18T16:01:57.700Z,19.77
2022-12-18T16:04:29.150Z,20.65
2022-12-18T16:07:19.283Z,19.95
2022-12-18T16:09:33.265Z,19.27
2022-12-18T16:12:05.230Z,19.02
2022-12-18T16:14:36.493Z,16.95
2022-12-18T16:17:12.729Z,20.08
2022-12-18T16:19:43.975Z,18.62
2022-12-18T16:22:25.689Z,17.52
2022-12-18T16:24:58.165Z,16.42
2022-12-18T16:27:29.452Z,17.92
2022-12-18T16:30:00.954Z,19.05
2022-12-18T16:32:32.398Z,18.52
2022-12-18T16:35:03.769Z,20.15
2022-12-18T16:37:35.227Z,19.32
2022-12-18T16:40:09.762Z,19.57
2022-12-18T16:42:42.667Z,19.35
2022-12-18T16:45:16.595Z,20.27
2022-12-18T16:47:48.219Z,19.87
2022-12-18T16:50:19.742Z,21.00
2022-12-18T16:52:50.961Z,21.30
2022-12-18T16:55:22.176Z,22.05
2022-12-18T16:57:53.439Z,22.87
2022-12-18T17:00:24.923Z,22.35
2022-12-18T17:02:56.583Z,20.80
2022-12-18T17:05:28.128Z,21.93
2022-12-18T17:08:00.660Z,22.20
2022-12-18T17:10:32.063Z,23.95
2022-12-18T17:13:03.985Z,25.50
2022-12-18T17:15:38.672Z,22.17
2022-12-18T17:18:10.370Z,23.32
2022-12-18T17:20:41.734Z,21.23
2022-12-18T17:23:14.077Z,20.52
2022-12-18T17:25:45.584Z,19.07
2022-12-18T17:28:16.979Z,21.60
2022-12-18T17:30:52.466Z,20.82
2022-12-18T17:33:29.171Z,20.62
2022-12-18T17:36:02.489Z,22.48
2022-12-18T17:38:38.465Z,18.37
2022-12-18T17:41:12.249Z,18.67
2022-12-18T17:43:45.763Z,22.58
2022-12-18T17:46:17.627Z,20.52
2022-12-18T17:48:49.214Z,22.80
2022-12-18T17:51:21.784Z,22.52
2022-12-18T17:53:53.287Z,20.92
2022-12-18T17:56:25.905Z,23.90
2022-12-18T17:58:57.214Z,21.87
2022-12-18T18:01:28.676Z,23.62
2022-12-18T18:04:02.232Z,23.30
2022-12-18T18:06:33.794Z,22.50
2022-12-18T18:09:15.111Z,24.25
2022-12-18T18:11:58.053Z,24.15
2022-12-18T18:14:29.680Z,28.90
2022-12-18T18:17:04.632Z,27.90
2022-12-18T18:19:35.886Z,27.70
2022-12-18T18:22:26.994Z,25.55
2022-12-18T18:24:59.202Z,28.05
2022-12-18T18:27:38.252Z,24.55
2022-12-18T18:30:06.678Z,22.60
2022-12-18T18:32:39.652Z,23.57
2022-12-18T18:35:24.614Z,24.45
2022-12-18T18:37:45.046Z,20.35
2022-12-18T18:40:17.341Z,21.93
2022-12-18T18:42:48.743Z,21.93
2022-12-18T18:45:19.967Z,20.72
2022-12-18T18:47:51.261Z,23.30
2022-12-18T18:50:22.671Z,24.50
2022-12-18T18:52:54.192Z,22.05
2022-12-18T18:55:25.971Z,21.97
2022-12-18T18:57:57.281Z,22.55
2022-12-18T19:00:29.389Z,20.00
2022-12-18T19:03:01.126Z,21.93
2022-12-18T19:05:34.165Z,20.35
2022-12-18T19:08:07.114Z,21.35
2022-12-18T19:10:42.550Z,19.40
2022-12-18T19:13:26.637Z,19.37
2022-12-18T19:16:05.391Z,19.62
2022-12-18T19:18:38.479Z,19.65
2022-12-18T19:21:11.294Z,20.10
2022-12-18T19:23:42.578Z,23.07
2022-12-18T19:26:27.501Z,23.05
2022-12-18T19:28:48.171Z,21.37
2022-12-18T19:31:24.930Z,21.42
2022-12-18T19:33:52.908Z,22.25
2022-12-18T19:36:27.002Z,23.35
2022-12-18T19:39:00.937Z,21.25
2022-12-18T19:41:32.930Z,22.55
2022-12-18T19:44:07.585Z,21.75
2022-12-18T19:46:41.937Z,21.25
2022-12-18T19:49:16.279Z,21.25
2022-12-18T19:51:46.547Z,21.25
2022-12-18T19:54:18.514Z,22.82
2022-12-18T19:56:51.842Z,20.95
2022-12-18T19:59:23.730Z,22.13
2022-12-18T20:01:56.229Z,24.70
2022-12-18T20:04:27.786Z,23.83
2022-12-18T20:06:59.296Z,24.90
2022-12-18T20:09:31.030Z,24.20
2022-12-18T20:12:02.430Z,21.80
2022-12-18T20:14:35.191Z,22.67
2022-12-18T20:17:06.938Z,22.70
2022-12-18T20:19:39.046Z,25.27
2022-12-18T20:22:11.241Z,27.02
2022-12-18T20:24:42.607Z,24.20
2022-12-18T20:27:17.120Z,24.00
2022-12-18T20:29:47.190Z,24.65
2022-12-18T20:32:18.672Z,24.43
2022-12-18T20:34:50.016Z,24.80
2022-12-18T20:37:22.187Z,24.47
2022-12-18T20:39:55.123Z,23.40
2022-12-18T20:42:26.801Z,24.87
2022-12-18T20:44:58.028Z,24.82
2022-12-18T20:47:29.339Z,21.93
2022-12-18T20:50:00.719Z,25.08
2022-12-18T20:52:32.015Z,22.40
2022-12-18T20:55:03.419Z,21.27
2022-12-18T20:57:34.819Z,23.85
2022-12-18T21:00:11.089Z,26.50
2022-12-18T21:02:43.841Z,23.18
2022-12-18T21:05:15.227Z,23.75
2022-12-18T21:07:46.894Z,23.30
2022-12-18T21:10:18.444Z,25.80
2022-12-18T21:13:01.680Z,25.45
2022-12-18T21:15:28.320Z,27.32
2022-12-18T21:17:56.188Z,28.05
2022-12-18T21:20:27.662Z,23.75
2022-12-18T21:23:05.838Z,25.80
2022-12-18T21:25:33.650Z,22.37
2022-12-18T21:28:05.123Z,24.52
2022-12-18T21:30:36.827Z,24.90
2022-12-18T21:33:08.598Z,23.20
2022-12-18T21:35:39.964Z,24.32
2022-12-18T21:38:11.180Z,25.75
2022-12-18T21:40:42.530Z,22.95
2022-12-18T21:43:31.874Z,28.45
2022-12-18T21:46:03.324Z,26.70
2022-12-18T21:48:36.717Z,22.93
2022-12-18T21:51:08.612Z,23.15
2022-12-18T21:53:39.854Z,24.07
2022-12-18T21:56:11.615Z,23.67
2022-12-18T21:58:55.629Z,25.32
2022-12-18T22:01:16.311Z,28.32
2022-12-18T22:04:11.321Z,23.90
2022-12-18T22:06:43.592Z,25.55
2022-12-18T22:09:17.526Z,34.33
2022-12-18T22:11:51.343Z,29.50
2022-12-18T22:14:23.156Z,27.98
2022-12-18T22:16:56.079Z,26.20
2022-12-18T22:19:28.842Z,25.00
2022-12-18T22:22:01.176Z,28.60
2022-12-18T22:24:32.464Z,26.55
2022-12-18T22:27:04.057Z,25.45
2022-12-18T22:29:53.638Z,24.85
2022-12-18T22:32:30.722Z,24.23
2022-12-18T22:35:04.860Z,27.22
2022-12-18T22:37:31.627Z,27.82
2022-12-18T22:40:03.845Z,25.10
2022-12-18T22:42:35.801Z,27.45
2022-12-18T22:45:08.710Z,27.27
2022-12-18T22:47:41.063Z,24.40
2022-12-18T22:50:14.854Z,27.45
2022-12-18T22:52:46.256Z,24.55
2022-12-18T22:55:18.144Z,23.25
2022-12-18T22:57:50.342Z,26.75
2022-12-18T23:00:24.498Z,29.85
2022-12-18T23:03:00.158Z,25.02
2022-12-18T23:05:28.609Z,23.50
2022-12-18T23:08:00.402Z,27.82
2022-12-18T23:10:32.125Z,26.95
2022-12-18T23:13:04.416Z,29.02
2022-12-18T23:15:35.724Z,29.27
2022-12-18T23:18:07.344Z,28.27
2022-12-18T23:20:40.820Z,28.40
2022-12-18T23:23:12.926Z,27.25
2022-12-18T23:25:45.981Z,27.02
2022-12-18T23:28:18.248Z,23.95
2022-12-18T23:30:50.647Z,28.75
2022-12-18T23:33:22.211Z,28.83
2022-12-18T23:35:55.442Z,24.90
2022-12-18T23:38:26.797Z,28.98
2022-12-18T23:40:58.646Z,24.32
2022-12-18T23:43:30.905Z,26.12
2022-12-18T23:46:02.675Z,23.50
2022-12-18T23:48:33.878Z,23.70
2022-12-18T23:53:38.867Z,23.70
2022-12-18T23:56:13.757Z,24.50
2022-12-18T23:58:47.086Z,25.88
